createdAt,value
2018-12-23T00:01:55.426Z,101129.69
2018-12-23T00:04:23.050Z,101130.23
2018-12-23T00:06:50.667Z,101135.34
2018-12-23T00:09:18.361Z,101137.51
2018-12-23T00:11:45.959Z,101139.09
2018-12-23T00:14:13.601Z,101146.42
2018-12-23T00:16:41.189Z,101145.23
2018-12-23T00:19:08.773Z,101149.69
2018-12-23T00:21:36.327Z,101151.98
2018-12-23T00:24:03.985Z,101155.96
2018-12-23T00:26:31.580Z,101160.42
2018-12-23T00:28:59.460Z,101161.04
2018-12-23T00:31:27.049Z,101162.05
2018-12-23T00:33:54.632Z,101174.64
2018-12-23T00:36:22.193Z,101174.94
2018-12-23T00:38:49.995Z,101183.23
2018-12-23T00:41:17.684Z,101188.05
2018-12-23T00:43:45.283Z,101183.91
2018-12-23T00:46:12.968Z,101182.04
2018-12-23T00:48:40.561Z,101182.87
2018-12-23T00:51:08.150Z,101188.17
2018-12-23T00:53:35.737Z,101192.51
2018-12-23T00:56:03.375Z,101205.75
2018-12-23T00:58:30.990Z,101206.37
2018-12-23T01:00:58.590Z,101213.12
2018-12-23T01:03:26.177Z,101214.92
2018-12-23T01:05:53.734Z,101217.58
2018-12-23T01:08:21.327Z,101222.88
2018-12-23T01:10:48.930Z,101224.88
2018-12-23T01:13:16.499Z,101231.53
2018-12-23T01:15:44.298Z,101231.66
2018-12-23T01:18:11.899Z,101231.47
2018-12-23T01:20:39.500Z,101230.63
2018-12-23T01:23:07.089Z,101237.27
2018-12-23T01:25:34.714Z,101241.56
2018-12-23T01:28:02.317Z,101240.75
2018-12-23T01:30:29.931Z,101241.62
2018-12-23T01:32:57.541Z,101245.72
2018-12-23T01:35:25.162Z,101250.69
2018-12-23T01:37:52.813Z,101250.53
2018-12-23T01:40:20.419Z,101258.62
2018-12-23T01:42:47.973Z,101267.05
2018-12-23T01:45:15.560Z,101271.53
2018-12-23T01:47:43.148Z,101270.05
2018-12-23T01:50:11.052Z,101266.56
2018-12-23T01:52:38.689Z,101268.50
2018-12-23T01:55:06.290Z,101275.52
2018-12-23T01:57:33.867Z,101277.81
2018-12-23T02:00:01.447Z,101269.52
2018-12-23T02:02:29.532Z,101266.58
2018-12-23T02:04:57.105Z,101264.94
2018-12-23T02:07:24.649Z,101262.41
2018-12-23T02:09:52.235Z,101264.94
2018-12-23T02:12:19.793Z,101264.42
2018-12-23T02:14:47.457Z,101266.45
2018-12-23T02:17:15.086Z,101276.48
2018-12-23T02:19:42.728Z,101279.33
2018-12-23T02:22:10.317Z,101275.52
2018-12-23T02:24:38.002Z,101270.53
2018-12-23T02:27:05.644Z,101270.17
2018-12-23T02:29:33.229Z,101270.05
2018-12-23T02:32:00.834Z,101276.99
2018-12-23T02:34:28.447Z,101274.02
2018-12-23T02:36:56.050Z,101279.80
2018-12-23T02:39:23.634Z,101282.81
2018-12-23T02:41:51.235Z,101273.91
2018-12-23T02:44:18.876Z,101277.34
2018-12-23T02:46:46.428Z,101289.36
2018-12-23T02:49:13.992Z,101276.97
2018-12-23T02:51:41.576Z,101268.98
2018-12-23T02:54:09.200Z,101267.48
2018-12-23T02:56:36.806Z,101270.20
2018-12-23T02:59:04.502Z,101270.36
2018-12-23T03:01:32.135Z,101268.39
2018-12-23T03:03:59.752Z,101275.48
2018-12-23T03:06:27.474Z,101263.69
2018-12-23T03:08:55.181Z,101264.77
2018-12-23T03:11:22.743Z,101270.86
2018-12-23T03:13:50.647Z,101263.44
2018-12-23T03:16:18.232Z,101256.46
2018-12-23T03:18:45.834Z,101251.36
2018-12-23T03:21:13.432Z,101262.19
2018-12-23T03:23:40.984Z,101267.48
2018-12-23T03:26:08.634Z,101259.19
2018-12-23T03:28:36.199Z,101265.92
2018-12-23T03:31:04.079Z,101262.54
2018-12-23T03:33:31.659Z,101270.13
2018-12-23T03:35:59.270Z,101266.56
2018-12-23T03:38:26.908Z,101259.47
2018-12-23T03:40:54.561Z,101252.84
2018-12-23T03:43:22.153Z,101256.17
2018-12-23T03:45:49.802Z,101248.36
2018-12-23T03:48:17.715Z,101239.25
2018-12-23T03:50:45.359Z,101234.88
2018-12-23T03:53:13.233Z,101233.19
2018-12-23T03:55:40.860Z,101226.52
2018-12-23T03:58:08.443Z,101226.19
2018-12-23T04:00:36.347Z,101228.73
2018-12-23T04:03:04.064Z,101227.90
2018-12-23T04:05:31.754Z,101238.61
2018-12-23T04:07:59.345Z,101230.77
2018-12-23T04:10:26.924Z,101234.13
2018-12-23T04:12:54.487Z,101234.94
2018-12-23T04:15:22.109Z,101228.61
2018-12-23T04:17:49.687Z,101229.16
2018-12-23T04:20:17.369Z,101229.80
2018-12-23T04:22:44.965Z,101226.39
2018-12-23T04:25:12.569Z,101230.06
2018-12-23T04:27:40.189Z,101227.52
2018-12-23T04:30:07.805Z,101216.77
2018-12-23T04:32:35.474Z,101223.61
2018-12-23T04:35:03.027Z,101224.94
2018-12-23T04:37:30.704Z,101223.00
2018-12-23T04:39:58.358Z,101223.61
2018-12-23T04:42:26.012Z,101220.25
2018-12-23T04:44:53.878Z,101228.78
2018-12-23T04:47:21.478Z,101225.91
2018-12-23T04:49:49.020Z,101217.96
2018-12-23T04:52:16.569Z,101220.00
2018-12-23T04:54:44.514Z,101215.73
2018-12-23T04:57:12.090Z,101226.33
2018-12-23T04:59:39.687Z,101220.91
2018-12-23T05:02:07.290Z,101227.88
2018-12-23T05:04:34.883Z,101227.75
2018-12-23T05:07:02.438Z,101221.97
2018-12-23T05:09:29.993Z,101218.48
2018-12-23T05:11:57.614Z,101213.90
2018-12-23T05:14:25.271Z,101221.55
2018-12-23T05:16:52.871Z,101212.22
2018-12-23T05:19:20.489Z,101211.09
2018-12-23T05:21:48.152Z,101217.52
2018-12-23T05:24:16.372Z,101207.47
2018-12-23T05:26:43.939Z,101211.51
2018-12-23T05:29:11.901Z,101209.95
2018-12-23T05:31:39.446Z,101209.83
2018-12-23T05:34:07.143Z,101212.13
2018-12-23T05:36:34.705Z,101212.47
2018-12-23T05:39:02.647Z,101217.41
2018-12-23T05:41:30.245Z,101221.13
2018-12-23T05:43:58.083Z,101219.32
2018-12-23T05:46:26.210Z,101211.44
2018-12-23T05:48:53.833Z,101217.22
2018-12-23T05:51:21.621Z,101211.31
2018-12-23T05:53:49.303Z,101213.06
2018-12-23T05:56:17.224Z,101215.22
2018-12-23T05:58:44.830Z,101212.95
2018-12-23T06:01:12.543Z,101218.55
2018-12-23T06:03:40.237Z,101220.16
2018-12-23T06:06:07.793Z,101230.11
2018-12-23T06:08:35.391Z,101229.43
2018-12-23T06:11:03.615Z,101224.68
2018-12-23T06:13:31.363Z,101224.68
2018-12-23T06:15:59.093Z,101227.81
2018-12-23T06:18:26.864Z,101234.18
2018-12-23T06:20:54.522Z,101225.94
2018-12-23T06:23:22.598Z,101223.39
2018-12-23T06:25:50.198Z,101224.00
2018-12-23T06:28:17.993Z,101216.83
2018-12-23T06:30:45.545Z,101221.50
2018-12-23T06:33:13.226Z,101221.86
2018-12-23T06:35:40.877Z,101229.45
2018-12-23T06:38:08.457Z,101227.73
2018-12-23T06:40:36.019Z,101221.73
2018-12-23T06:43:03.678Z,101224.30
2018-12-23T06:45:31.604Z,101222.76
2018-12-23T06:47:59.284Z,101225.15
2018-12-23T06:50:26.828Z,101219.01
2018-12-23T06:52:54.436Z,101216.09
2018-12-23T06:55:22.156Z,101210.02
2018-12-23T06:57:49.815Z,101219.23
2018-12-23T07:00:17.424Z,101228.20
2018-12-23T07:02:45.364Z,101217.74
2018-12-23T07:05:12.968Z,101213.45
2018-12-23T07:07:40.569Z,101210.57
2018-12-23T07:10:08.683Z,101219.63
2018-12-23T07:12:36.255Z,101213.35
2018-12-23T07:15:04.223Z,101208.77
2018-12-23T07:17:31.788Z,101198.38
2018-12-23T07:19:59.389Z,101195.87
2018-12-23T07:22:27.204Z,101199.90
2018-12-23T07:24:54.881Z,101206.04
2018-12-23T07:27:22.533Z,101201.09
2018-12-23T07:29:50.097Z,101200.61
2018-12-23T07:32:17.673Z,101204.36
2018-12-23T07:34:45.313Z,101205.91
2018-12-23T07:37:12.889Z,101210.94
2018-12-23T07:39:40.691Z,101209.27
2018-12-23T07:42:08.395Z,101212.05
2018-12-23T07:44:36.008Z,101223.84
2018-12-23T07:47:03.629Z,101225.00
2018-12-23T07:49:31.589Z,101225.16
2018-12-23T07:51:59.274Z,101222.87
2018-12-23T07:54:27.017Z,101228.00
2018-12-23T07:56:54.672Z,101223.28
2018-12-23T07:59:22.852Z,101220.27
2018-12-23T08:01:51.939Z,101218.39
2018-12-23T08:04:19.758Z,101220.83
2018-12-23T08:06:47.679Z,101218.39
2018-12-23T08:09:15.952Z,101219.45
2018-12-23T08:11:44.305Z,101225.29
2018-12-23T08:14:12.184Z,101229.08
2018-12-23T08:16:39.960Z,101221.13
2018-12-23T08:19:07.529Z,101223.48
2018-12-23T08:21:35.191Z,101220.83
2018-12-23T08:24:02.768Z,101223.35
2018-12-23T08:26:30.362Z,101223.56
2018-12-23T08:28:58.108Z,101219.02
2018-12-23T08:31:25.733Z,101219.02
2018-12-23T08:33:53.322Z,101212.09
2018-12-23T08:36:20.975Z,101213.15
2018-12-23T08:38:48.651Z,101220.97
2018-12-23T08:41:16.487Z,101225.70
2018-12-23T08:43:44.065Z,101225.35
2018-12-23T08:46:11.863Z,101227.03
2018-12-23T08:48:39.511Z,101224.46
2018-12-23T08:51:07.134Z,101228.36
2018-12-23T08:53:34.740Z,101235.12
2018-12-23T08:56:02.486Z,101231.14
2018-12-23T08:58:30.134Z,101226.95
2018-12-23T09:00:57.750Z,101228.98
2018-12-23T09:03:25.373Z,101232.03
2018-12-23T09:05:53.723Z,101229.81
2018-12-23T09:08:21.603Z,101227.08
2018-12-23T09:10:49.492Z,101227.91
2018-12-23T09:13:17.099Z,101229.05
2018-12-23T09:15:44.713Z,101226.52
2018-12-23T09:18:19.331Z,101221.29
2018-12-23T09:20:42.323Z,101217.81
2018-12-23T09:23:09.929Z,101216.77
2018-12-23T09:25:37.478Z,101216.37
2018-12-23T09:28:05.136Z,101211.94
2018-12-23T09:30:32.783Z,101208.80
2018-12-23T09:33:00.366Z,101209.58
2018-12-23T09:35:27.967Z,101217.23
2018-12-23T09:38:01.429Z,101212.39
2018-12-23T09:40:25.339Z,101208.45
2018-12-23T09:42:53.036Z,101209.11
2018-12-23T09:45:20.837Z,101212.60
2018-12-23T09:47:48.798Z,101209.04
2018-12-23T09:50:16.483Z,101209.23
2018-12-23T09:52:44.389Z,101231.58
2018-12-23T09:55:12.320Z,101206.80
2018-12-23T09:57:40.236Z,101207.44
2018-12-23T10:00:08.377Z,101215.79
2018-12-23T10:02:35.989Z,101201.86
2018-12-23T10:05:03.668Z,101200.77
2018-12-23T10:07:31.269Z,101198.88
2018-12-23T10:09:58.872Z,101206.08
2018-12-23T10:12:26.832Z,101190.88
2018-12-23T10:14:54.580Z,101194.52
2018-12-23T10:17:22.183Z,101185.33
2018-12-23T10:19:50.245Z,101184.78
2018-12-23T10:22:19.049Z,101188.06
2018-12-23T10:24:46.755Z,101185.78
2018-12-23T10:27:14.407Z,101181.55
2018-12-23T10:29:42.261Z,101175.81
2018-12-23T10:32:11.061Z,101183.16
2018-12-23T10:34:38.655Z,101189.42
2018-12-23T10:37:06.243Z,101173.98
2018-12-23T10:39:33.904Z,101167.77
2018-12-23T10:42:01.698Z,101162.10
2018-12-23T10:44:29.445Z,101156.62
2018-12-23T10:46:57.194Z,101170.03
2018-12-23T10:49:24.805Z,101164.83
2018-12-23T10:51:52.798Z,101164.34
2018-12-23T10:54:20.392Z,101154.00
2018-12-23T10:56:47.989Z,101156.06
2018-12-23T10:59:15.586Z,101157.14
2018-12-23T11:01:43.146Z,101142.50
2018-12-23T11:04:11.463Z,101148.50
2018-12-23T11:06:39.090Z,101133.98
2018-12-23T11:09:06.744Z,101136.98
2018-12-23T11:11:34.541Z,101135.31
2018-12-23T11:14:02.280Z,101133.72
2018-12-23T11:16:59.596Z,101123.38
2018-12-23T11:19:28.295Z,101132.33
2018-12-23T11:21:57.332Z,101136.47
2018-12-23T11:24:26.098Z,101123.70
2018-12-23T11:26:54.781Z,101120.00
2018-12-23T11:29:23.798Z,101115.96
2018-12-23T11:31:52.427Z,101117.47
2018-12-23T11:34:21.575Z,101110.91
2018-12-23T11:36:50.336Z,101119.83
2018-12-23T11:39:19.026Z,101107.24
2018-12-23T11:41:47.712Z,101109.15
2018-12-23T11:44:16.396Z,101101.61
2018-12-23T11:46:44.989Z,101101.20
2018-12-23T11:49:13.591Z,101092.89
2018-12-23T11:51:42.340Z,101088.28
2018-12-23T11:54:10.899Z,101085.94
2018-12-23T11:56:39.518Z,101086.20
2018-12-23T11:59:08.488Z,101086.37
2018-12-23T12:01:37.199Z,101086.86
2018-12-23T12:04:05.985Z,101080.31
2018-12-23T12:06:34.587Z,101078.31
2018-12-23T12:11:52.350Z,101082.36
2018-12-23T12:14:20.930Z,101080.20
2018-12-23T12:19:46.438Z,101072.98
2018-12-23T12:22:14.995Z,101071.33
2018-12-23T12:24:43.716Z,101067.35
2018-12-23T12:27:12.372Z,101053.67
2018-12-23T12:29:40.915Z,101038.03
2018-12-23T12:32:09.564Z,101041.81
2018-12-23T12:34:38.184Z,101040.97
2018-12-23T12:37:06.839Z,101045.99
2018-12-23T12:39:35.424Z,101046.25
2018-12-23T12:42:04.062Z,101041.64
2018-12-23T12:44:32.737Z,101040.40
2018-12-23T12:47:01.364Z,101045.62
2018-12-23T12:49:30.041Z,101039.96
2018-12-23T12:54:47.795Z,101031.51
2018-12-23T12:57:16.395Z,101042.70
2018-12-23T12:59:44.907Z,101028.27
2018-12-23T13:02:13.480Z,101033.67
2018-12-23T13:04:42.087Z,101029.02
2018-12-23T13:07:10.668Z,101027.78
2018-12-23T13:09:39.435Z,101036.36
2018-12-23T13:12:08.064Z,101025.36
2018-12-23T13:14:36.755Z,101022.22
2018-12-23T13:17:05.429Z,101025.45
2018-12-23T13:19:33.982Z,101019.80
2018-12-23T13:22:02.641Z,101022.09
2018-12-23T13:24:31.335Z,101008.08
2018-12-23T13:26:59.970Z,101006.81
2018-12-23T13:29:28.583Z,100999.19
2018-12-23T13:31:57.197Z,101001.23
2018-12-23T13:34:25.827Z,101002.73
2018-12-23T13:36:54.882Z,101000.08
2018-12-23T13:39:23.829Z,101000.49
2018-12-23T13:42:31.343Z,100995.18
2018-12-23T13:45:38.629Z,100995.84
2018-12-23T13:48:47.464Z,101000.34
2018-12-23T13:51:54.949Z,101001.84
2018-12-23T13:55:03.540Z,101002.56
2018-12-23T13:58:12.380Z,101003.03
2018-12-23T14:01:04.771Z,101000.25
2018-12-23T14:04:15.147Z,100997.02
2018-12-23T14:07:22.474Z,100986.06
2018-12-23T14:10:29.786Z,100992.18
2018-12-23T14:15:34.144Z,100978.70
2018-12-23T14:18:02.983Z,100979.55
2018-12-23T14:20:31.527Z,100974.09
2018-12-23T14:23:00.282Z,100975.42
2018-12-23T14:25:28.983Z,100969.56
2018-12-23T14:27:57.712Z,100976.05
2018-12-23T14:30:26.484Z,100966.59
2018-12-23T14:32:55.425Z,100959.44
2018-12-23T14:35:23.995Z,100964.59
2018-12-23T14:38:05.335Z,100968.30
2018-12-23T14:40:23.497Z,100957.33
2018-12-23T14:42:52.543Z,100964.08
2018-12-23T14:45:21.395Z,100957.30
2018-12-23T14:47:50.110Z,100956.29
2018-12-23T14:50:18.901Z,100952.98
2018-12-23T14:52:47.707Z,100958.63
2018-12-23T14:55:16.592Z,100952.89
2018-12-23T14:57:45.261Z,100962.79
2018-12-23T15:00:13.920Z,100958.05
2018-12-23T15:02:42.849Z,100959.01
2018-12-23T15:05:11.596Z,100948.74
2018-12-23T15:07:40.285Z,100945.72
2018-12-23T15:10:48.941Z,100942.11
2018-12-23T15:13:18.103Z,100936.72
2018-12-23T15:15:47.164Z,100942.66
2018-12-23T15:18:17.751Z,100936.72
2018-12-23T15:20:46.395Z,100932.64
2018-12-23T15:23:14.967Z,100925.53
2018-12-23T15:25:43.754Z,100922.03
2018-12-23T15:28:12.343Z,100928.32
2018-12-23T15:30:41.609Z,100924.55
2018-12-23T15:33:10.755Z,100913.97
2018-12-23T15:35:39.417Z,100912.33
2018-12-23T15:38:08.106Z,100908.86
2018-12-23T15:40:37.392Z,100904.52
2018-12-23T15:43:06.264Z,100912.64
2018-12-23T15:45:35.070Z,100902.69
2018-12-23T15:48:03.800Z,100900.88
2018-12-23T15:50:32.475Z,100899.49
2018-12-23T15:53:01.408Z,100900.47
2018-12-23T15:55:30.098Z,100894.50
2018-12-23T15:57:58.745Z,100886.86
2018-12-23T16:00:27.601Z,100882.94
2018-12-23T16:02:56.316Z,100878.97
2018-12-23T16:05:25.419Z,100877.66
2018-12-23T16:07:54.171Z,100871.15
2018-12-23T16:10:22.920Z,100869.31
2018-12-23T16:12:51.789Z,100861.17
2018-12-23T16:15:20.514Z,100864.41
2018-12-23T16:17:49.306Z,100862.59
2018-12-23T16:20:17.897Z,100861.41
2018-12-23T16:22:46.659Z,100864.41
2018-12-23T16:25:15.581Z,100861.06
2018-12-23T16:27:44.237Z,100858.27
2018-12-23T16:30:13.093Z,100859.13
2018-12-23T16:32:41.956Z,100854.66
2018-12-23T16:35:10.644Z,100851.75
2018-12-23T16:37:39.310Z,100855.70
2018-12-23T16:40:29.006Z,100858.70
2018-12-23T16:42:57.727Z,100855.73
2018-12-23T16:45:26.314Z,100858.70
2018-12-23T16:47:54.909Z,100855.01
2018-12-23T16:50:23.545Z,100847.66
2018-12-23T16:52:52.167Z,100846.70
2018-12-23T16:55:20.782Z,100844.38
2018-12-23T16:57:49.408Z,100844.20
2018-12-23T17:00:18.061Z,100842.85
2018-12-23T17:02:46.787Z,100839.70
2018-12-23T17:05:15.543Z,100841.73
2018-12-23T17:07:44.170Z,100834.58
2018-12-23T17:10:12.894Z,100842.38
2018-12-23T17:12:41.654Z,100830.45
2018-12-23T17:15:10.449Z,100823.33
2018-12-23T17:17:39.166Z,100821.37
2018-12-23T17:20:47.772Z,100821.02
2018-12-23T17:23:16.472Z,100818.25
2018-12-23T17:25:45.109Z,100823.90
2018-12-23T17:28:13.877Z,100816.44
2018-12-23T17:31:01.934Z,100824.59
2018-12-23T17:33:30.616Z,100811.81
2018-12-23T17:35:59.323Z,100816.90
2018-12-23T17:38:27.939Z,100817.25
2018-12-23T17:40:56.555Z,100811.59
2018-12-23T17:43:25.982Z,100814.76
2018-12-23T17:45:54.769Z,100815.80
2018-12-23T17:48:23.381Z,100816.63
2018-12-23T17:50:52.080Z,100823.06
2018-12-23T17:53:20.851Z,100819.58
2018-12-23T17:55:49.534Z,100819.28
2018-12-23T17:58:18.225Z,100814.27
2018-12-23T18:00:47.003Z,100816.90
2018-12-23T18:03:15.729Z,100819.90
2018-12-23T18:05:44.272Z,100814.42
2018-12-23T18:08:12.932Z,100815.50
2018-12-23T18:10:41.749Z,100804.70
2018-12-23T18:13:10.413Z,100805.39
2018-12-23T18:15:39.139Z,100804.38
2018-12-23T18:18:07.911Z,100799.68
2018-12-23T18:20:36.497Z,100796.69
2018-12-23T18:23:05.219Z,100793.77
2018-12-23T18:25:33.840Z,100793.77
2018-12-23T18:28:02.911Z,100790.13
2018-12-23T18:30:31.902Z,100786.15
2018-12-23T18:33:00.608Z,100779.42
2018-12-23T18:35:29.337Z,100775.30
2018-12-23T18:37:58.136Z,100772.52
2018-12-23T18:40:33.327Z,100782.44
2018-12-23T18:42:57.216Z,100784.39
2018-12-23T18:45:25.795Z,100777.73
2018-12-23T18:47:54.514Z,100781.09
2018-12-23T18:50:23.570Z,100783.41
2018-12-23T18:52:52.343Z,100781.09
2018-12-23T18:55:21.035Z,100772.45
2018-12-23T18:57:49.770Z,100774.81
2018-12-23T19:00:18.476Z,100774.34
2018-12-23T19:02:47.232Z,100779.45
2018-12-23T19:05:15.957Z,100778.52
2018-12-23T19:07:44.802Z,100767.49
2018-12-23T19:14:04.448Z,100763.05
2018-12-23T19:17:13.043Z,100757.86
2018-12-23T19:20:20.806Z,100756.91
2018-12-23T19:23:29.421Z,100752.27
2018-12-23T19:26:38.081Z,100757.18
2018-12-23T19:29:45.461Z,100741.59
2018-12-23T19:32:54.138Z,100738.45
2018-12-23T19:39:13.313Z,100739.45
2018-12-23T19:42:20.644Z,100736.98
2018-12-23T19:45:29.290Z,100729.33
2018-12-23T19:48:36.474Z,100721.36
2018-12-23T19:51:45.188Z,100740.27
2018-12-23T19:54:53.907Z,100733.00
2018-12-23T19:58:02.622Z,100732.18
2018-12-23T20:01:09.983Z,100731.33
2018-12-23T20:04:18.592Z,100735.03
2018-12-23T20:07:27.258Z,100728.84
2018-12-23T20:10:34.989Z,100730.36
2018-12-23T20:13:42.267Z,100730.70
2018-12-23T20:16:51.043Z,100736.14
2018-12-23T20:19:58.719Z,100725.36
2018-12-23T20:23:07.270Z,100727.42
2018-12-23T20:26:15.439Z,100731.39
2018-12-23T20:29:22.974Z,100730.36
2018-12-23T20:32:30.373Z,100722.75
2018-12-23T20:35:37.706Z,100726.31
2018-12-23T20:38:45.225Z,100723.05
2018-12-23T20:41:52.555Z,100726.37
2018-12-23T20:45:01.517Z,100728.82
2018-12-23T20:48:10.583Z,100713.70
2018-12-23T20:51:19.669Z,100712.70
2018-12-23T20:54:29.452Z,100722.63
2018-12-23T20:57:36.695Z,100711.72
2018-12-23T21:00:44.047Z,100706.77
2018-12-23T21:03:52.671Z,100703.91
2018-12-23T21:07:00.018Z,100698.13
2018-12-23T21:10:08.628Z,100706.02
2018-12-23T21:13:15.967Z,100706.70
2018-12-23T21:16:24.071Z,100694.50
2018-12-23T21:19:31.363Z,100691.78
2018-12-23T21:22:38.806Z,100691.84
2018-12-23T21:25:46.061Z,100691.27
2018-12-23T21:28:53.468Z,100694.36
2018-12-23T21:32:01.062Z,100681.33
2018-12-23T21:35:08.405Z,100688.78
2018-12-23T21:38:17.009Z,100691.44
2018-12-23T21:41:25.597Z,100693.80
2018-12-23T21:44:32.908Z,100697.77
2018-12-23T21:47:41.635Z,100693.66
2018-12-23T21:50:49.047Z,100693.22
2018-12-23T21:53:56.631Z,100694.86
2018-12-23T21:57:05.284Z,100696.38
2018-12-23T22:00:12.665Z,100696.72
2018-12-23T22:03:20.145Z,100694.92
2018-12-23T22:06:27.438Z,100694.43
2018-12-23T22:09:35.993Z,100692.59
2018-12-23T22:12:43.318Z,100689.95
2018-12-23T22:15:12.055Z,100686.31
2018-12-23T22:17:40.613Z,100692.94
2018-12-23T22:20:09.460Z,100684.30
2018-12-23T22:22:38.104Z,100682.97
2018-12-23T22:25:06.762Z,100684.10
2018-12-23T22:27:35.427Z,100683.94
2018-12-23T22:32:59.411Z,100672.50
2018-12-23T22:35:29.433Z,100686.75
2018-12-23T22:37:57.999Z,100691.22
2018-12-23T22:40:26.812Z,100699.87
2018-12-23T22:42:55.515Z,100693.74
2018-12-23T22:45:24.198Z,100689.95
2018-12-23T22:47:52.894Z,100682.97
2018-12-23T22:50:21.502Z,100681.00
2018-12-23T22:52:50.220Z,100676.19
2018-12-23T22:55:18.821Z,100672.53
2018-12-23T22:57:47.457Z,100674.37
2018-12-23T23:00:56.077Z,100679.68
2018-12-23T23:03:24.958Z,100682.33
2018-12-23T23:05:53.614Z,100687.64
2018-12-23T23:08:22.273Z,100678.35
2018-12-23T23:10:50.816Z,100682.83
2018-12-23T23:13:19.505Z,100675.86
2018-12-23T23:15:48.569Z,100678.01
2018-12-23T23:18:17.652Z,100673.69
2018-12-23T23:20:46.649Z,100675.02
2018-12-23T23:23:15.281Z,100666.23
2018-12-23T23:25:44.049Z,100676.00
2018-12-23T23:28:12.648Z,100678.01
2018-12-23T23:30:41.291Z,100675.03
2018-12-23T23:33:10.021Z,100680.66
2018-12-23T23:35:38.596Z,100675.02
2018-12-23T23:38:07.165Z,100673.69
2018-12-23T23:40:35.783Z,100681.30
2018-12-23T23:43:04.350Z,100682.62
2018-12-23T23:45:32.928Z,100684.30
2018-12-23T23:48:01.558Z,100685.97
2018-12-23T23:50:49.423Z,100684.58
2018-12-23T23:53:18.109Z,100683.20
2018-12-23T23:55:46.665Z,100684.53
2018-12-23T23:58:15.277Z,100685.02
